Altdorf, Wisconsin
Current Conditions -  °F | °C
As of 10:54 AM on Saturday 25 Oct 2014 (Local Time) from KISW Reporting Station
Clear Clear  
Wind Chill: 59°   Ceiling: Unl
Heat Index: 59°   Visibility: 10mi
Dew Point: 34°   Wind: 14mph
Humidity: 39%   Direction: 300°WNW
Pressure: 29.94"   Gusts: 24mph
Location:  44.4583°N, 90.0009°W
Report Text: KISW 251554Z AUTO 30012G21KT 290V350 10SM CLR 15/01 A2994 RMK AO2 SLP140 T01500011
Loading
Personal Weather Stations






























Interactive Weather Map
Tropical Storm Tracking
New forecast layout! Learn more

10-Day Weather Forecast

Advertisements
Track Severe Weather on mobile